New Mountain, Texas
Current Conditions -  °F | °C
As of 10:55 PM on Wednesday 22 Oct 2014 (Local Time) from KOSA Reporting Station
Clear Clear  
Wind Chill: 61°   Ceiling: Unl
Heat Index: 61°   Visibility: 10mi
Dew Point: 52°   Wind: 5mph
Humidity: 73%   Direction: 80°E
Pressure: 30.16"   Gusts: NA
Location:  32.7353°N, 94.9492°W
Report Text: KOSA 230355Z AUTO 08004KT 10SM CLR 16/11 A3016 RMK AO1 T01600111
Loading
Personal Weather Stations






























Interactive Weather Map
Tropical Storm Tracking
New forecast layout! Learn more

10-Day Weather Forecast

Advertisements
Track Severe Weather on mobile